Terminal Aerodrome Forecast
Issued by NWS Sioux Falls, SD

Home | Current Version | Previous Version | Text Only | Print | Product List | Glossary On
Versions: 1 2 3 4 5 6 7 8 9 10 11 12 13 14 15 16 17 18 19 20 21 22 23 24 25 26 27 28 29 30 31 32 33 34
000
FTUS43 KFSD 192320
TAFSUX
TAF
KSUX 192320Z 2000/2024 15017G25KT P6SM SCT050
     FM200100 15017G25KT P6SM SCT050 WS015/16050KT
     FM200600 20015G22KT P6SM BKN150
     FM200800 29012KT P6SM SCT050
     FM201300 31009KT P6SM SKC
     FM202100 25006KT P6SM SKC=

USA.gov is the U.S. government's official web portal to all federal, state and local government web resources and services.